Macuru Arrow — C6YH3 — position and weather

sailwx.info

Track history (hours):
 
Tides and Currents Weather Stations Pressure Air Temp Water Temp Dewpoint Dewpoint Depression Visibility Wind Speed Wind Dir Waves Ship Positions

Macuru Arrow

Last reported at 2017-Mar-05 00:32 UTC. Time now 2017-Mar-26 20:59 UTC.
Position N 02°02' E 102°11'.
Warning: this ship's position is 21 days out of date.

Length 225 m; draft 7.4 m.

Type: Cargo ship. MMSI: 311032500.

Date/timePositionNaut miles runAvg speedWind from/ knotsBaromVisibWave heightAir tempDewpointWater temp
2017-Mar-05 00:32N 02°02' E 102°11'1415.0
2017-Mar-04 23:33N 01°54' E 102°24'1515.1
2017-Mar-04 22:33N 01°47' E 102°37'1515.0
2017-Mar-04 21:33N 01°41' E 102°51'4113.6
2017-Mar-04 18:33N 01°16' E 103°23'1313.5
2017-Mar-04 17:34N 01°11' E 103°35'1413.5
2017-Mar-04 16:33N 01°11' E 103°49'9 9.1
2017-Mar-04 15:32N 01°17' E 103°56'0 0.5
2017-Mar-04 14:33N 01°17' E 103°57'0 0.0
2017-Mar-04 13:30N 01°17' E 103°57'0 0.0
2017-Mar-04 12:33N 01°17' E 103°57'0 0.0
2017-Mar-04 11:33N 01°17' E 103°57'0 0.0
2017-Mar-04 04:33N 01°17' E 103°57'0 0.0
2017-Mar-04 03:33N 01°17' E 103°57'0 0.0
2017-Mar-04 02:33N 01°17' E 103°57'1 1.1
2017-Mar-04 01:33N 01°16' E 103°58'3 2.5
2017-Mar-04 00:33N 01°16' E 104°00'5 4.6
2017-Mar-03 23:30N 01°16' E 104°05'  
2017-Feb-24 06:31N 31°26' E 121°28'0 0.0
2017-Feb-24 05:31N 31°26' E 121°28'0 0.0
2017-Feb-24 04:31N 31°26' E 121°28'0 0.0
2017-Feb-24 03:31N 31°26' E 121°28'0 0.0
2017-Feb-24 02:31N 31°26' E 121°28'0 0.0
2017-Feb-24 01:31N 31°26' E 121°28'0 0.0
2017-Feb-24 00:25N 31°26' E 121°28'0 0.0
2017-Feb-23 23:28N 31°26' E 121°28'0 0.0
2017-Feb-23 22:31N 31°26' E 121°28'0 0.0
2017-Feb-23 21:31N 31°26' E 121°28'0 0.0
2017-Feb-23 20:31N 31°26' E 121°28'0 0.0
2017-Feb-23 19:31N 31°26' E 121°28'0 0.0
2017-Feb-23 18:22N 31°26' E 121°28'0 0.0
2017-Feb-23 17:28N 31°26' E 121°28'0 0.0
2017-Feb-23 16:31N 31°26' E 121°28'0 0.0
2017-Feb-23 15:31N 31°26' E 121°28'0 0.0
2017-Feb-23 14:31N 31°26' E 121°28'0 0.0
2017-Feb-23 13:31N 31°26' E 121°28'0 0.0
2017-Feb-23 12:22N 31°26' E 121°28'0 0.0
2017-Feb-23 11:31N 31°26' E 121°28'0 0.0
2017-Feb-23 10:31N 31°26' E 121°28'0 0.0
2017-Feb-23 09:31N 31°26' E 121°28'0 0.0
2017-Feb-23 08:31N 31°26' E 121°28'0 0.0
2017-Feb-23 07:28N 31°26' E 121°28'0 0.0
2017-Feb-23 06:28N 31°26' E 121°28'0 0.0
2017-Feb-23 05:28N 31°26' E 121°28'0 0.0
2017-Feb-23 04:31N 31°26' E 121°28'0 0.0
2017-Feb-23 03:31N 31°26' E 121°28'0 0.0
2017-Feb-23 02:31N 31°26' E 121°28'0 0.0
2017-Feb-23 01:31N 31°26' E 121°28'  
Track history (hours):
 
Tides and Currents Weather Stations Pressure Air Temp Water Temp Dewpoint Dewpoint Depression Visibility Wind Speed Wind Dir Waves Ship Positions

Macuru Arrow

Last reported at 2017-Mar-05 00:32 UTC. Time now 2017-Mar-26 20:59 UTC.
Position N 02°02' E 102°11'.
Warning: this ship's position is 21 days out of date.

Length 225 m; draft 7.4 m.

Type: Cargo ship. MMSI: 311032500.

Date/timePositionNaut miles runAvg speedWind from/ knotsBaromVisibWave heightAir tempDewpointWater temp
2017-Mar-05 00:32N 02°02' E 102°11'1415.0
2017-Mar-04 23:33N 01°54' E 102°24'1515.1
2017-Mar-04 22:33N 01°47' E 102°37'1515.0
2017-Mar-04 21:33N 01°41' E 102°51'4113.6
2017-Mar-04 18:33N 01°16' E 103°23'1313.5
2017-Mar-04 17:34N 01°11' E 103°35'1413.5
2017-Mar-04 16:33N 01°11' E 103°49'9 9.1
2017-Mar-04 15:32N 01°17' E 103°56'0 0.5
2017-Mar-04 14:33N 01°17' E 103°57'0 0.0
2017-Mar-04 13:30N 01°17' E 103°57'0 0.0
2017-Mar-04 12:33N 01°17' E 103°57'0 0.0
2017-Mar-04 11:33N 01°17' E 103°57'0 0.0
2017-Mar-04 04:33N 01°17' E 103°57'0 0.0
2017-Mar-04 03:33N 01°17' E 103°57'0 0.0
2017-Mar-04 02:33N 01°17' E 103°57'1 1.1
2017-Mar-04 01:33N 01°16' E 103°58'3 2.5
2017-Mar-04 00:33N 01°16' E 104°00'5 4.6
2017-Mar-03 23:30N 01°16' E 104°05'  
2017-Feb-24 06:31N 31°26' E 121°28'0 0.0
2017-Feb-24 05:31N 31°26' E 121°28'0 0.0
2017-Feb-24 04:31N 31°26' E 121°28'0 0.0
2017-Feb-24 03:31N 31°26' E 121°28'0 0.0
2017-Feb-24 02:31N 31°26' E 121°28'0 0.0
2017-Feb-24 01:31N 31°26' E 121°28'0 0.0
2017-Feb-24 00:25N 31°26' E 121°28'0 0.0
2017-Feb-23 23:28N 31°26' E 121°28'0 0.0
2017-Feb-23 22:31N 31°26' E 121°28'0 0.0
2017-Feb-23 21:31N 31°26' E 121°28'0 0.0
2017-Feb-23 20:31N 31°26' E 121°28'0 0.0
2017-Feb-23 19:31N 31°26' E 121°28'0 0.0
2017-Feb-23 18:22N 31°26' E 121°28'0 0.0
2017-Feb-23 17:28N 31°26' E 121°28'0 0.0
2017-Feb-23 16:31N 31°26' E 121°28'0 0.0
2017-Feb-23 15:31N 31°26' E 121°28'0 0.0
2017-Feb-23 14:31N 31°26' E 121°28'0 0.0
2017-Feb-23 13:31N 31°26' E 121°28'0 0.0
2017-Feb-23 12:22N 31°26' E 121°28'0 0.0
2017-Feb-23 11:31N 31°26' E 121°28'0 0.0
2017-Feb-23 10:31N 31°26' E 121°28'0 0.0
2017-Feb-23 09:31N 31°26' E 121°28'0 0.0
2017-Feb-23 08:31N 31°26' E 121°28'0 0.0
2017-Feb-23 07:28N 31°26' E 121°28'0 0.0
2017-Feb-23 06:28N 31°26' E 121°28'0 0.0
2017-Feb-23 05:28N 31°26' E 121°28'0 0.0
2017-Feb-23 04:31N 31°26' E 121°28'0 0.0
2017-Feb-23 03:31N 31°26' E 121°28'0 0.0
2017-Feb-23 02:31N 31°26' E 121°28'0 0.0
2017-Feb-23 01:31N 31°26' E 121°28'  

Dump ship's entire track history